Time;durP1;ratioP1;P1;durP2;ratioP2;P2;SDS_P1;SDS_P2;PMS_P1;PMS_P2;Temp;Humidity;BMP_temperature;BMP_pressure;BME280_temperature;BME280_humidity;BME280_pressure;Samples;Min_cycle;Max_cycle;Signal;HPM_P1;HPM_P2
2022/09/21 00:02:02;;;;;;;4.10;2.60;;;;;;;;;;5052510;28;20196;-45
2022/09/21 00:04:28;;;;;;;3.07;2.00;;;;;;;;;;5052446;28;20279;-45
2022/09/21 00:06:54;;;;;;;2.70;2.00;;;;;;;;;;5052295;28;20749;-45
2022/09/21 00:09:21;;;;;;;2.10;1.90;;;;;;;;;;5051776;28;20196;-45
2022/09/21 00:11:47;;;;;;;2.10;1.90;;;;;;;;;;5052023;28;20207;-45
2022/09/21 00:14:14;;;;;;;3.83;1.80;;;;;;;;;;5052190;28;20232;-45
2022/09/21 00:16:40;;;;;;;4.33;2.40;;;;;;;;;;5052279;28;20227;-45
2022/09/21 00:19:06;;;;;;;1.87;1.70;;;;;;;;;;5052284;28;20647;-45
2022/09/21 00:21:33;;;;;;;2.23;1.90;;;;;;;;;;5052159;28;20274;-45
2022/09/21 00:24:01;;;;;;;4.13;2.10;;;;;;;;;;5052166;28;20195;-45
2022/09/21 00:26:28;;;;;;;4.13;2.27;;;;;;;;;;5052041;28;20204;-46
2022/09/21 00:28:56;;;;;;;3.13;2.40;;;;;;;;;;5052245;28;20208;-45
2022/09/21 00:31:22;;;;;;;2.77;2.10;;;;;;;;;;5051776;28;20236;-45
2022/09/21 00:33:49;;;;;;;2.60;1.90;;;;;;;;;;5051843;28;20650;-45
2022/09/21 00:36:16;;;;;;;4.37;2.50;;;;;;;;;;5052050;28;20255;-45
2022/09/21 00:38:43;;;;;;;3.93;2.63;;;;;;;;;;5050473;28;20204;-45
2022/09/21 00:41:09;;;;;;;3.30;2.27;;;;;;;;;;5052151;28;20196;-45
2022/09/21 00:43:42;;;;;;;4.03;2.50;;;;;;;;;;5051884;28;20206;-45
2022/09/21 00:46:13;;;;;;;2.70;2.37;;;;;;;;;;5051910;28;20258;-45
2022/09/21 00:48:39;;;;;;;3.23;2.13;;;;;;;;;;5051917;28;20196;-46
2022/09/21 00:51:07;;;;;;;3.20;2.00;;;;;;;;;;5051430;28;20446;-45
2022/09/21 00:53:33;;;;;;;3.80;2.63;;;;;;;;;;5051568;28;20232;-45
2022/09/21 00:56:01;;;;;;;2.40;2.20;;;;;;;;;;5051738;28;20693;-45
2022/09/21 00:58:29;;;;;;;3.47;2.27;;;;;;;;;;5051673;28;20206;-45
2022/09/21 01:00:58;;;;;;;3.13;2.60;;;;;;;;;;5051681;28;20196;-45
2022/09/21 01:03:24;;;;;;;3.43;2.70;;;;;;;;;;5051540;28;20196;-45
2022/09/21 01:05:50;;;;;;;4.03;2.03;;;;;;;;;;5051439;28;20483;-45
2022/09/21 01:08:17;;;;;;;5.70;3.40;;;;;;;;;;5051213;28;20266;-45
2022/09/21 01:10:51;;;;;;;5.87;4.07;;;;;;;;;;5051428;28;20231;-45
2022/09/21 01:13:24;;;;;;;6.87;3.70;;;;;;;;;;5051307;28;20800;-45
2022/09/21 01:15:52;;;;;;;7.67;4.10;;;;;;;;;;5051179;28;20493;-45
2022/09/21 01:18:21;;;;;;;6.57;3.63;;;;;;;;;;5051410;28;20283;-45
2022/09/21 01:20:58;;;;;;;5.70;3.60;;;;;;;;;;5051055;28;20274;-45
2022/09/21 01:23:45;;;;;;;6.13;3.77;;;;;;;;;;5051137;28;20654;-45
2022/09/21 01:26:15;;;;;;;5.47;4.03;;;;;;;;;;5044503;28;20448;-45
2022/09/21 01:28:56;;;;;;;6.93;3.67;;;;;;;;;;5051087;28;20489;-46
2022/09/21 01:31:24;;;;;;;7.47;3.97;;;;;;;;;;5051080;28;20317;-45
2022/09/21 01:33:52;;;;;;;7.17;4.40;;;;;;;;;;5050898;28;20231;-45
2022/09/21 01:36:20;;;;;;;5.97;4.80;;;;;;;;;;5051056;28;20614;-45
2022/09/21 01:38:50;;;;;;;6.50;4.47;;;;;;;;;;5050887;28;20442;-45
2022/09/21 01:41:18;;;;;;;10.97;6.13;;;;;;;;;;5049369;28;20228;-45
2022/09/21 01:43:46;;;;;;;8.33;5.67;;;;;;;;;;5051082;28;20247;-45
2022/09/21 01:46:15;;;;;;;8.17;5.53;;;;;;;;;;5051117;28;20430;-45
2022/09/21 01:48:43;;;;;;;7.57;5.63;;;;;;;;;;5050902;28;20435;-45
2022/09/21 01:51:11;;;;;;;7.93;5.43;;;;;;;;;;5050927;28;20868;-44
2022/09/21 01:53:38;;;;;;;8.77;5.37;;;;;;;;;;5050720;28;20271;-45
2022/09/21 01:56:07;;;;;;;8.77;6.10;;;;;;;;;;5050586;28;20481;-45
2022/09/21 01:58:34;;;;;;;7.37;4.83;;;;;;;;;;5050790;28;20200;-45
2022/09/21 02:01:00;;;;;;;8.07;4.77;;;;;;;;;;5050806;28;20474;-45
2022/09/21 02:03:30;;;;;;;8.30;5.33;;;;;;;;;;5053695;28;20441;-45
2022/09/21 02:05:57;;;;;;;9.20;5.33;;;;;;;;;;5054738;28;20204;-45
2022/09/21 02:08:25;;;;;;;11.50;6.00;;;;;;;;;;5052914;28;20306;-45
2022/09/21 02:10:52;;;;;;;18.50;6.60;;;;;;;;;;5054611;28;20438;-45
2022/09/21 02:13:19;;;;;;;9.43;5.03;;;;;;;;;;5054312;28;20580;-45
2022/09/21 02:15:49;;;;;;;9.63;5.07;;;;;;;;;;5054130;28;20437;-45
2022/09/21 02:18:19;;;;;;;11.40;5.10;;;;;;;;;;5054641;28;20473;-45
2022/09/21 02:20:49;;;;;;;8.97;5.23;;;;;;;;;;5054370;28;20520;-45
2022/09/21 02:23:21;;;;;;;8.93;5.67;;;;;;;;;;5054599;28;20458;-45
2022/09/21 02:25:50;;;;;;;9.73;5.97;;;;;;;;;;5054516;28;20434;-45
2022/09/21 02:28:20;;;;;;;10.63;5.53;;;;;;;;;;5054468;28;20434;-45
2022/09/21 02:30:48;;;;;;;9.63;5.47;;;;;;;;;;5053980;28;20509;-45
2022/09/21 02:33:19;;;;;;;8.47;5.50;;;;;;;;;;5054090;28;20478;-45
2022/09/21 02:35:48;;;;;;;11.70;5.60;;;;;;;;;;5054299;28;20458;-45
2022/09/21 02:38:19;;;;;;;7.60;5.07;;;;;;;;;;5054351;28;20454;-45
2022/09/21 02:40:49;;;;;;;10.60;4.97;;;;;;;;;;5054277;28;20812;-46
2022/09/21 02:43:20;;;;;;;6.83;5.00;;;;;;;;;;5054140;28;20204;-45
2022/09/21 02:45:49;;;;;;;9.97;6.17;;;;;;;;;;5052527;28;20430;-45
2022/09/21 02:48:17;;;;;;;14.50;6.70;;;;;;;;;;5054339;28;20445;-45
2022/09/21 02:50:45;;;;;;;16.63;6.00;;;;;;;;;;5053930;28;20218;-45
2022/09/21 02:53:12;;;;;;;6.60;5.07;;;;;;;;;;5053898;28;21050;-45
2022/09/21 02:55:40;;;;;;;7.50;5.60;;;;;;;;;;5053733;28;21019;-45
2022/09/21 02:58:10;;;;;;;6.43;5.03;;;;;;;;;;5054110;28;20792;-45
2022/09/21 03:00:36;;;;;;;6.93;4.87;;;;;;;;;;5053831;28;20443;-44
2022/09/21 03:03:15;;;;;;;5.50;4.67;;;;;;;;;;5051340;28;20522;-45
2022/09/21 03:05:42;;;;;;;17.27;5.03;;;;;;;;;;5053893;28;20494;-45
2022/09/21 03:08:08;;;;;;;5.27;4.73;;;;;;;;;;5053685;28;20964;-45
2022/09/21 03:10:38;;;;;;;5.77;4.67;;;;;;;;;;5051923;28;21028;-45
2022/09/21 03:13:07;;;;;;;4.30;3.90;;;;;;;;;;5053122;28;20710;-45
2022/09/21 03:15:34;;;;;;;6.00;4.97;;;;;;;;;;5053316;28;20537;-45
2022/09/21 03:17:59;;;;;;;6.03;4.53;;;;;;;;;;5050715;28;20453;-45
2022/09/21 03:20:25;;;;;;;6.07;4.87;;;;;;;;;;5051666;28;20506;-45
2022/09/21 03:22:51;;;;;;;7.40;4.57;;;;;;;;;;5051319;28;20683;-45
2022/09/21 03:25:17;;;;;;;4.73;3.93;;;;;;;;;;5051530;28;20342;-45
2022/09/21 03:27:43;;;;;;;7.80;4.60;;;;;;;;;;5053027;28;20207;-45
2022/09/21 03:30:11;;;;;;;6.87;4.50;;;;;;;;;;5050253;28;20246;-45
2022/09/21 03:32:37;;;;;;;7.93;4.80;;;;;;;;;;5050009;28;20506;-45
2022/09/21 03:35:03;;;;;;;4.93;3.90;;;;;;;;;;5051067;28;20525;-45
2022/09/21 03:37:29;;;;;;;4.07;3.63;;;;;;;;;;5053018;28;20196;-45
2022/09/21 03:39:55;;;;;;;5.60;4.13;;;;;;;;;;5051622;28;20522;-45
2022/09/21 03:42:21;;;;;;;4.10;3.57;;;;;;;;;;5052910;28;20439;-45
2022/09/21 03:44:47;;;;;;;5.33;4.20;;;;;;;;;;5052172;28;20662;-45
2022/09/21 03:47:15;;;;;;;6.73;4.23;;;;;;;;;;5053054;28;20287;-45
2022/09/21 03:49:41;;;;;;;10.43;4.50;;;;;;;;;;5052722;28;20480;-45
2022/09/21 03:52:07;;;;;;;6.23;4.10;;;;;;;;;;5052965;28;20971;-45
2022/09/21 03:54:33;;;;;;;6.37;4.43;;;;;;;;;;5052844;28;20238;-45
2022/09/21 03:56:59;;;;;;;10.07;4.17;;;;;;;;;;5052740;28;20431;-45
2022/09/21 03:59:25;;;;;;;5.37;3.80;;;;;;;;;;5052661;28;20971;-45
2022/09/21 04:01:51;;;;;;;4.20;3.80;;;;;;;;;;5052659;28;20435;-45
2022/09/21 04:04:19;;;;;;;5.43;3.87;;;;;;;;;;5052584;28;20727;-45
2022/09/21 04:06:45;;;;;;;5.00;4.23;;;;;;;;;;5052344;28;20674;-45
2022/09/21 04:09:11;;;;;;;4.80;3.87;;;;;;;;;;5052680;28;20875;-45
2022/09/21 04:11:37;;;;;;;7.20;4.20;;;;;;;;;;5050893;28;20533;-45
2022/09/21 04:14:04;;;;;;;4.77;4.23;;;;;;;;;;5052413;28;20558;-45
2022/09/21 04:16:30;;;;;;;5.60;3.97;;;;;;;;;;5052455;28;20438;-45
2022/09/21 04:18:56;;;;;;;4.37;3.67;;;;;;;;;;5052170;28;20486;-45
2022/09/21 04:21:23;;;;;;;5.77;3.90;;;;;;;;;;5052376;28;20435;-45
2022/09/21 04:23:50;;;;;;;4.67;3.60;;;;;;;;;;5050670;28;20431;-45
2022/09/21 04:26:20;;;;;;;5.03;3.53;;;;;;;;;;5051850;28;20862;-45
2022/09/21 04:28:46;;;;;;;9.43;3.50;;;;;;;;;;5052139;28;21012;-45
2022/09/21 04:31:12;;;;;;;3.43;3.13;;;;;;;;;;5052103;28;20558;-45
2022/09/21 04:33:38;;;;;;;4.70;3.63;;;;;;;;;;5052140;28;20242;-45
2022/09/21 04:36:05;;;;;;;4.97;3.97;;;;;;;;;;5052081;28;20251;-45
2022/09/21 04:38:32;;;;;;;5.20;4.10;;;;;;;;;;5052097;28;20797;-45
2022/09/21 04:40:58;;;;;;;4.97;4.40;;;;;;;;;;5052091;28;20447;-45
2022/09/21 04:43:25;;;;;;;4.10;3.70;;;;;;;;;;5051817;28;20470;-45
2022/09/21 04:45:51;;;;;;;4.80;4.03;;;;;;;;;;5051814;28;20801;-45
2022/09/21 04:48:17;;;;;;;4.23;3.80;;;;;;;;;;5051999;28;20443;-46
2022/09/21 04:50:43;;;;;;;5.67;3.83;;;;;;;;;;5051796;28;20317;-45
2022/09/21 04:53:09;;;;;;;4.63;3.70;;;;;;;;;;5051796;28;20474;-45
2022/09/21 04:55:36;;;;;;;5.47;4.30;;;;;;;;;;5051704;28;20461;-45
2022/09/21 04:58:02;;;;;;;3.53;3.23;;;;;;;;;;5051844;28;20204;-45
2022/09/21 05:00:28;;;;;;;15.60;4.63;;;;;;;;;;5051595;28;20806;-45
2022/09/21 05:02:54;;;;;;;5.37;4.50;;;;;;;;;;5051534;28;20189;-44
2022/09/21 05:05:20;;;;;;;5.07;4.50;;;;;;;;;;5051477;28;20441;-45
2022/09/21 05:07:46;;;;;;;5.70;4.30;;;;;;;;;;5051263;28;20220;-44
2022/09/21 05:10:12;;;;;;;7.03;4.90;;;;;;;;;;5051433;28;20196;-45
2022/09/21 05:12:42;;;;;;;5.37;4.10;;;;;;;;;;5051215;28;20263;-45
2022/09/21 05:15:09;;;;;;;5.20;4.10;;;;;;;;;;5051231;28;20211;-45
2022/09/21 05:17:35;;;;;;;4.87;3.70;;;;;;;;;;5051154;28;20451;-45
2022/09/21 05:20:01;;;;;;;4.87;3.87;;;;;;;;;;5050700;28;20820;-45
2022/09/21 05:22:27;;;;;;;4.30;3.73;;;;;;;;;;5049543;28;20196;-45
2022/09/21 05:24:54;;;;;;;3.77;3.33;;;;;;;;;;5050916;28;20465;-45
2022/09/21 05:27:20;;;;;;;4.30;3.60;;;;;;;;;;5051110;28;20200;-45
2022/09/21 05:29:48;;;;;;;4.97;4.27;;;;;;;;;;5050828;28;20481;-45
2022/09/21 05:32:20;;;;;;;4.17;3.70;;;;;;;;;;5049190;28;20471;-44
2022/09/21 05:34:52;;;;;;;5.23;4.10;;;;;;;;;;5048898;28;20427;-44
2022/09/21 05:37:27;;;;;;;5.00;4.13;;;;;;;;;;5050817;28;20447;-44
2022/09/21 05:39:53;;;;;;;5.43;4.27;;;;;;;;;;5048882;28;20473;-44
2022/09/21 05:42:19;;;;;;;5.13;4.20;;;;;;;;;;5048548;28;20501;-44
2022/09/21 05:44:48;;;;;;;6.23;5.30;;;;;;;;;;5049126;28;20430;-45
2022/09/21 05:47:21;;;;;;;10.53;8.43;;;;;;;;;;5050877;28;20470;-45
2022/09/21 05:49:51;;;;;;;10.13;7.40;;;;;;;;;;5048863;28;20833;-45
2022/09/21 05:52:21;;;;;;;12.03;8.87;;;;;;;;;;5050643;28;20515;-45
2022/09/21 05:54:54;;;;;;;9.30;7.63;;;;;;;;;;5048612;28;20451;-45
2022/09/21 05:57:25;;;;;;;10.40;7.67;;;;;;;;;;5049858;28;20469;-45
2022/09/21 05:59:56;;;;;;;5.37;4.60;;;;;;;;;;5050510;28;20443;-45
2022/09/21 06:02:30;;;;;;;4.60;3.93;;;;;;;;;;5050749;28;20975;-45
2022/09/21 06:04:57;;;;;;;5.40;4.77;;;;;;;;;;5050769;28;20478;-45
2022/09/21 06:07:23;;;;;;;10.57;4.97;;;;;;;;;;5050772;28;20485;-45
2022/09/21 06:09:49;;;;;;;8.23;5.17;;;;;;;;;;5050599;28;20439;-45
2022/09/21 06:12:15;;;;;;;5.40;4.90;;;;;;;;;;5050608;28;20438;-45
2022/09/21 06:14:41;;;;;;;6.50;5.47;;;;;;;;;;5050722;28;20631;-45
2022/09/21 06:17:07;;;;;;;6.70;5.07;;;;;;;;;;5050649;28;20433;-45
2022/09/21 06:19:34;;;;;;;5.27;4.87;;;;;;;;;;5050640;28;20250;-44
2022/09/21 06:22:00;;;;;;;5.13;4.73;;;;;;;;;;5050805;28;20900;-45
2022/09/21 06:24:26;;;;;;;5.70;5.20;;;;;;;;;;5050087;28;20430;-45
2022/09/21 06:26:52;;;;;;;5.73;5.17;;;;;;;;;;5050333;28;20607;-45
2022/09/21 06:29:22;;;;;;;6.07;5.57;;;;;;;;;;5049094;28;20231;-45
2022/09/21 06:31:48;;;;;;;5.30;4.90;;;;;;;;;;5050515;28;20242;-45
2022/09/21 06:34:14;;;;;;;5.17;4.77;;;;;;;;;;5050608;28;20482;-45
2022/09/21 06:36:41;;;;;;;5.20;4.77;;;;;;;;;;5049422;28;20204;-45
2022/09/21 06:39:07;;;;;;;5.27;4.87;;;;;;;;;;5048611;28;20216;-44
2022/09/21 06:41:33;;;;;;;10.73;5.13;;;;;;;;;;5048316;28;20439;-44
2022/09/21 06:43:59;;;;;;;6.03;5.30;;;;;;;;;;5050017;28;20227;-45
2022/09/21 06:46:25;;;;;;;6.57;5.97;;;;;;;;;;5050395;28;20197;-45
2022/09/21 06:48:51;;;;;;;6.23;5.53;;;;;;;;;;5049705;28;20441;-44
2022/09/21 06:51:19;;;;;;;7.30;6.43;;;;;;;;;;5052096;28;20438;-45
2022/09/21 06:53:47;;;;;;;6.90;6.30;;;;;;;;;;5052255;28;20235;-45
2022/09/21 06:56:13;;;;;;;8.47;6.93;;;;;;;;;;5051785;28;20434;-45
2022/09/21 06:58:39;;;;;;;8.20;7.40;;;;;;;;;;5052024;28;20196;-45
2022/09/21 07:01:06;;;;;;;7.47;6.70;;;;;;;;;;5053538;28;20852;-45
2022/09/21 07:03:32;;;;;;;7.30;6.60;;;;;;;;;;5050228;28;20196;-45
2022/09/21 07:05:58;;;;;;;6.90;6.20;;;;;;;;;;5053341;28;20445;-46
2022/09/21 07:08:25;;;;;;;10.83;6.63;;;;;;;;;;5050525;28;20718;-45
2022/09/21 07:10:53;;;;;;;6.70;6.10;;;;;;;;;;5051449;28;20223;-45
2022/09/21 07:13:19;;;;;;;6.73;6.03;;;;;;;;;;5051479;28;20234;-45
2022/09/21 07:15:45;;;;;;;6.20;5.70;;;;;;;;;;5053118;28;20525;-45
2022/09/21 07:18:11;;;;;;;5.87;5.27;;;;;;;;;;5053310;28;20196;-45
2022/09/21 07:20:38;;;;;;;6.20;5.70;;;;;;;;;;5052995;28;20207;-44
2022/09/21 07:23:09;;;;;;;6.87;6.13;;;;;;;;;;5052517;28;20654;-44
2022/09/21 07:25:36;;;;;;;6.37;5.80;;;;;;;;;;5053097;28;20254;-44
2022/09/21 07:28:03;;;;;;;6.77;6.17;;;;;;;;;;5050693;28;20562;-44
2022/09/21 07:30:29;;;;;;;7.13;6.43;;;;;;;;;;5052735;28;20235;-44
2022/09/21 07:32:56;;;;;;;7.73;7.03;;;;;;;;;;5051932;28;20218;-44
2022/09/21 07:35:22;;;;;;;8.00;7.30;;;;;;;;;;5052947;28;20220;-44
2022/09/21 07:37:48;;;;;;;8.13;7.43;;;;;;;;;;5052896;28;20256;-45
2022/09/21 07:40:14;;;;;;;8.10;7.37;;;;;;;;;;5051346;28;20208;-45
2022/09/21 07:42:40;;;;;;;7.73;7.10;;;;;;;;;;5052750;28;20188;-45
2022/09/21 07:45:08;;;;;;;6.90;6.30;;;;;;;;;;5052733;28;20279;-46
2022/09/21 07:47:34;;;;;;;8.43;6.50;;;;;;;;;;5050405;28;20267;-46
2022/09/21 07:50:00;;;;;;;7.97;7.20;;;;;;;;;;5052615;28;20204;-45
2022/09/21 07:52:26;;;;;;;9.20;7.47;;;;;;;;;;5052759;28;20271;-45
2022/09/21 07:54:52;;;;;;;7.90;6.80;;;;;;;;;;5050152;28;20228;-45
2022/09/21 08:00:03;;;;;;;10.83;7.53;;;;;;;;;;5049479;28;20296;-45
2022/09/21 08:02:30;;;;;;;8.60;7.60;;;;;;;;;;5052145;28;20233;-44
2022/09/21 08:04:56;;;;;;;11.23;8.57;;;;;;;;;;5051854;28;20215;-44
2022/09/21 08:07:22;;;;;;;9.97;9.00;;;;;;;;;;5050167;28;20223;-44
2022/09/21 08:09:50;;;;;;;11.13;8.93;;;;;;;;;;5052404;28;20294;-45
2022/09/21 08:12:19;;;;;;;9.87;8.30;;;;;;;;;;5052210;28;20212;-46
2022/09/21 08:14:46;;;;;;;8.07;7.27;;;;;;;;;;5052087;28;20235;-49
2022/09/21 08:17:12;;;;;;;10.20;8.57;;;;;;;;;;5050009;28;20228;-45
2022/09/21 08:19:40;;;;;;;9.03;8.13;;;;;;;;;;5051209;28;20196;-45
2022/09/21 08:22:07;;;;;;;7.37;6.67;;;;;;;;;;5051709;28;20204;-44
2022/09/21 08:24:33;;;;;;;8.07;7.03;;;;;;;;;;5049885;28;20209;-45
2022/09/21 08:27:00;;;;;;;9.93;7.90;;;;;;;;;;5049635;28;20219;-45
2022/09/21 08:29:26;;;;;;;8.00;6.50;;;;;;;;;;5050229;28;20199;-45
2022/09/21 08:31:52;;;;;;;8.50;7.03;;;;;;;;;;5050797;28;20265;-45
2022/09/21 08:34:18;;;;;;;7.17;6.43;;;;;;;;;;5050733;28;20220;-45
2022/09/21 08:36:46;;;;;;;10.40;7.40;;;;;;;;;;5051980;28;20247;-45
2022/09/21 08:39:12;;;;;;;10.47;6.93;;;;;;;;;;5052579;28;20215;-45
2022/09/21 08:41:48;;;;;;;7.53;6.20;;;;;;;;;;5052451;28;20208;-45
2022/09/21 08:44:16;;;;;;;8.47;7.03;;;;;;;;;;5052429;28;20199;-45
2022/09/21 08:46:43;;;;;;;9.40;6.57;;;;;;;;;;5052241;28;20196;-46
2022/09/21 08:49:13;;;;;;;9.00;7.20;;;;;;;;;;5051610;28;20210;-46
2022/09/21 08:51:43;;;;;;;9.87;7.50;;;;;;;;;;5052259;28;20203;-46
2022/09/21 08:54:13;;;;;;;10.10;7.33;;;;;;;;;;5051935;28;20236;-46
2022/09/21 08:56:39;;;;;;;7.77;6.73;;;;;;;;;;5052257;28;20766;-46
2022/09/21 08:59:08;;;;;;;10.97;7.77;;;;;;;;;;5052011;28;20196;-46
2022/09/21 09:01:44;;;;;;;12.80;7.07;;;;;;;;;;5051906;28;20577;-46
2022/09/21 09:04:25;;;;;;;8.63;7.43;;;;;;;;;;5051703;28;20728;-46
2022/09/21 09:06:54;;;;;;;9.80;6.90;;;;;;;;;;5048583;28;20207;-46
2022/09/21 09:09:28;;;;;;;11.17;6.57;;;;;;;;;;5052038;28;20670;-46
2022/09/21 09:12:01;;;;;;;9.37;6.37;;;;;;;;;;5051292;28;20681;-47
2022/09/21 09:14:33;;;;;;;10.20;8.17;;;;;;;;;;5051578;28;20239;-46
2022/09/21 09:17:10;;;;;;;7.80;6.20;;;;;;;;;;5049562;28;20200;-46
2022/09/21 09:19:40;;;;;;;8.13;6.23;;;;;;;;;;5050802;28;20192;-46
2022/09/21 09:22:07;;;;;;;8.27;5.27;;;;;;;;;;5049946;28;20587;-44
2022/09/21 09:24:38;;;;;;;5.73;4.73;;;;;;;;;;5048401;28;20788;-45
2022/09/21 09:27:05;;;;;;;6.27;4.50;;;;;;;;;;5048058;28;20745;-46
2022/09/21 09:29:34;;;;;;;8.07;5.20;;;;;;;;;;5049289;28;20220;-46
2022/09/21 09:32:01;;;;;;;6.70;2.87;;;;;;;;;;5029130;28;20200;-45
2022/09/21 09:34:30;;;;;;;4.87;3.13;;;;;;;;;;5030353;28;20653;-45
2022/09/21 09:36:58;;;;;;;7.30;2.90;;;;;;;;;;5030859;28;20207;-46
2022/09/21 09:39:24;;;;;;;3.27;2.23;;;;;;;;;;5029334;28;20195;-45
2022/09/21 09:41:57;;;;;;;6.67;2.50;;;;;;;;;;5030315;28;20212;-45
2022/09/21 09:44:48;;;;;;;7.00;2.37;;;;;;;;;;5030772;28;20203;-45
2022/09/21 09:47:19;;;;;;;4.77;2.03;;;;;;;;;;5030737;28;20279;-47
2022/09/21 09:49:55;;;;;;;7.70;4.00;;;;;;;;;;5030712;28;20199;-45
2022/09/21 09:52:21;;;;;;;3.77;1.93;;;;;;;;;;5030879;28;20582;-45
2022/09/21 09:54:47;;;;;;;5.23;1.77;;;;;;;;;;5030773;28;20310;-45
2022/09/21 09:57:15;;;;;;;4.73;1.70;;;;;;;;;;5031359;28;20203;-46
2022/09/21 09:59:42;;;;;;;4.83;1.53;;;;;;;;;;5031142;28;20247;-46
2022/09/21 10:02:18;;;;;;;4.60;1.70;;;;;;;;;;5030618;28;20260;-46
2022/09/21 10:04:53;;;;;;;3.83;1.60;;;;;;;;;;5029152;28;20197;-46
2022/09/21 10:07:19;;;;;;;3.93;1.70;;;;;;;;;;5031078;28;20231;-46
2022/09/21 10:09:45;;;;;;;6.93;2.17;;;;;;;;;;5030805;28;20208;-46
2022/09/21 10:12:18;;;;;;;5.60;1.67;;;;;;;;;;5030698;28;20215;-46
2022/09/21 10:14:48;;;;;;;4.23;1.57;;;;;;;;;;5030626;28;20753;-46
2022/09/21 10:17:16;;;;;;;6.37;2.37;;;;;;;;;;5031034;28;20206;-46
2022/09/21 10:19:42;;;;;;;3.13;2.03;;;;;;;;;;5030471;28;20295;-46
2022/09/21 10:22:14;;;;;;;5.30;1.70;;;;;;;;;;5031203;28;20230;-46
2022/09/21 10:24:45;;;;;;;4.00;1.83;;;;;;;;;;5033982;28;20199;-46
2022/09/21 10:27:12;;;;;;;4.83;2.00;;;;;;;;;;5032240;28;20544;-46
2022/09/21 10:29:41;;;;;;;6.77;2.47;;;;;;;;;;5032721;28;20658;-46
2022/09/21 10:32:21;;;;;;;5.07;2.27;;;;;;;;;;5054179;28;20763;-46
2022/09/21 10:35:06;;;;;;;6.10;2.43;;;;;;;;;;5054210;28;20227;-46
2022/09/21 10:37:34;;;;;;;3.83;1.97;;;;;;;;;;5054396;28;20246;-48
2022/09/21 10:40:00;;;;;;;6.93;2.30;;;;;;;;;;5054346;28;20203;-46
2022/09/21 10:42:28;;;;;;;5.17;2.03;;;;;;;;;;5054481;28;20210;-46
2022/09/21 10:45:05;;;;;;;8.37;2.50;;;;;;;;;;5053681;28;20207;-46
2022/09/21 10:47:34;;;;;;;10.27;8.33;;;;;;;;;;5053872;28;20206;-46
2022/09/21 10:50:01;;;;;;;7.50;2.63;;;;;;;;;;5053023;28;20250;-47
2022/09/21 10:52:32;;;;;;;5.57;2.13;;;;;;;;;;5054100;28;20228;-45
2022/09/21 10:54:58;;;;;;;5.27;2.00;;;;;;;;;;5053946;28;20769;-46
2022/09/21 10:57:26;;;;;;;3.67;2.40;;;;;;;;;;5053986;28;20196;-45
2022/09/21 10:59:52;;;;;;;4.60;2.30;;;;;;;;;;5053658;28;20192;-46
2022/09/21 11:02:28;;;;;;;7.53;2.10;;;;;;;;;;5053944;28;20200;-47
2022/09/21 11:04:58;;;;;;;6.37;2.00;;;;;;;;;;5054042;28;20279;-48
2022/09/21 11:07:27;;;;;;;4.93;2.33;;;;;;;;;;5053874;28;20562;-47
2022/09/21 11:09:56;;;;;;;4.80;2.30;;;;;;;;;;5053888;28;20204;-47
2022/09/21 11:12:32;;;;;;;3.83;2.10;;;;;;;;;;5053299;28;20197;-48
2022/09/21 11:15:00;;;;;;;3.20;1.83;;;;;;;;;;5053186;28;20596;-47
2022/09/21 11:17:37;;;;;;;5.13;2.23;;;;;;;;;;5053911;28;20203;-49
2022/09/21 11:20:06;;;;;;;4.47;1.90;;;;;;;;;;5053672;28;20210;-48
2022/09/21 11:22:35;;;;;;;3.37;1.90;;;;;;;;;;5053734;28;20702;-47
2022/09/21 11:25:06;;;;;;;7.27;2.47;;;;;;;;;;5053425;28;20191;-46
2022/09/21 11:27:35;;;;;;;5.17;1.77;;;;;;;;;;5052791;28;20213;-47
2022/09/21 11:30:06;;;;;;;5.10;2.43;;;;;;;;;;5053047;28;20325;-47
2022/09/21 11:32:55;;;;;;;3.90;1.77;;;;;;;;;;5053603;28;20203;-49
2022/09/21 11:35:29;;;;;;;4.67;1.97;;;;;;;;;;5053429;28;20195;-49
2022/09/21 11:38:03;;;;;;;4.13;2.10;;;;;;;;;;5053398;28;20226;-50
2022/09/21 11:40:35;;;;;;;4.83;1.83;;;;;;;;;;5053698;28;20204;-48
2022/09/21 11:43:07;;;;;;;7.00;1.90;;;;;;;;;;5053270;28;20278;-47
2022/09/21 11:45:43;;;;;;;4.50;1.90;;;;;;;;;;5053537;28;20203;-47
2022/09/21 11:48:16;;;;;;;5.23;2.17;;;;;;;;;;5053110;28;20243;-47
2022/09/21 11:50:54;;;;;;;3.10;1.37;;;;;;;;;;5052479;28;20203;-47
2022/09/21 11:53:34;;;;;;;5.07;2.20;;;;;;;;;;5053301;28;20293;-47
2022/09/21 11:56:12;;;;;;;3.00;1.57;;;;;;;;;;5052933;28;20580;-47
2022/09/21 11:58:41;;;;;;;4.13;1.87;;;;;;;;;;5053081;28;20236;-47
2022/09/21 12:01:13;;;;;;;6.83;2.07;;;;;;;;;;5052726;28;20568;-46
2022/09/21 12:04:02;;;;;;;4.60;1.80;;;;;;;;;;5052845;28;20675;-47
2022/09/21 12:06:36;;;;;;;3.80;1.70;;;;;;;;;;5046768;28;20210;-47
2022/09/21 12:09:13;;;;;;;3.87;1.50;;;;;;;;;;5052439;28;20226;-47
2022/09/21 12:11:43;;;;;;;5.97;1.60;;;;;;;;;;5050190;28;20241;-47
2022/09/21 12:14:15;;;;;;;3.77;1.70;;;;;;;;;;5052137;28;20570;-47
2022/09/21 12:16:43;;;;;;;3.63;1.70;;;;;;;;;;5028558;28;20200;-47
2022/09/21 12:19:14;;;;;;;4.63;1.77;;;;;;;;;;5049119;28;20235;-46
2022/09/21 12:21:43;;;;;;;3.23;1.40;;;;;;;;;;5050984;28;20211;-47
2022/09/21 12:24:13;;;;;;;2.73;1.60;;;;;;;;;;5050140;28;20188;-46
2022/09/21 12:26:41;;;;;;;2.50;1.40;;;;;;;;;;5050198;28;20193;-46
2022/09/21 12:29:12;;;;;;;3.63;1.40;;;;;;;;;;5047694;28;20204;-46
2022/09/21 12:31:42;;;;;;;7.90;1.80;;;;;;;;;;5049972;28;20263;-46
2022/09/21 12:34:13;;;;;;;3.03;1.20;;;;;;;;;;5049149;28;20313;-46
2022/09/21 12:36:40;;;;;;;2.77;1.30;;;;;;;;;;5049362;28;20214;-45
2022/09/21 12:39:11;;;;;;;3.80;1.63;;;;;;;;;;5049391;28;20211;-45
2022/09/21 12:41:39;;;;;;;3.63;1.10;;;;;;;;;;5051364;28;20196;-46
2022/09/21 12:44:12;;;;;;;3.40;2.07;;;;;;;;;;5050237;28;21017;-47
2022/09/21 12:46:40;;;;;;;4.07;2.33;;;;;;;;;;5051375;28;20231;-47
2022/09/21 12:49:10;;;;;;;2.17;1.47;;;;;;;;;;5051637;28;20629;-45
2022/09/21 12:51:41;;;;;;;6.77;1.93;;;;;;;;;;5052406;28;20199;-46
2022/09/21 12:54:08;;;;;;;3.60;1.37;;;;;;;;;;5052116;28;20282;-45
2022/09/21 12:56:36;;;;;;;4.70;1.43;;;;;;;;;;5051632;28;20278;-46
2022/09/21 12:59:06;;;;;;;5.27;1.47;;;;;;;;;;5051734;28;20231;-46
2022/09/21 13:01:35;;;;;;;3.10;1.20;;;;;;;;;;5051995;28;20223;-46
2022/09/21 13:04:11;;;;;;;3.93;1.60;;;;;;;;;;5051487;28;20202;-46
2022/09/21 13:07:02;;;;;;;3.00;1.20;;;;;;;;;;5051859;28;20244;-46
2022/09/21 13:09:29;;;;;;;3.40;1.33;;;;;;;;;;5051670;28;20240;-46
2022/09/21 13:11:56;;;;;;;5.60;1.70;;;;;;;;;;5051049;28;20561;-46
2022/09/21 13:14:23;;;;;;;5.33;1.43;;;;;;;;;;5048398;28;20226;-46
2022/09/21 13:16:53;;;;;;;4.73;1.57;;;;;;;;;;5051245;28;20215;-46
2022/09/21 13:19:21;;;;;;;3.93;1.50;;;;;;;;;;5049261;28;20203;-46
2022/09/21 13:22:13;;;;;;;2.33;1.30;;;;;;;;;;5051393;28;20203;-46
2022/09/21 13:24:41;;;;;;;5.03;1.60;;;;;;;;;;5049429;28;20196;-46
2022/09/21 13:27:07;;;;;;;3.20;1.50;;;;;;;;;;5049638;28;20207;-46
2022/09/21 13:29:35;;;;;;;2.57;1.20;;;;;;;;;;5050127;28;20206;-45
2022/09/21 13:32:02;;;;;;;12.03;9.87;;;;;;;;;;5050627;28;20290;-46
2022/09/21 13:34:32;;;;;;;3.03;2.23;;;;;;;;;;5051030;28;20230;-46
2022/09/21 13:37:31;;;;;;;4.77;4.10;;;;;;;;;;5050669;28;20196;-46
2022/09/21 13:40:16;;;;;;;2.00;1.13;;;;;;;;;;5050406;28;20204;-46
2022/09/21 13:42:47;;;;;;;3.97;1.67;;;;;;;;;;5050905;28;20664;-46
2022/09/21 13:45:40;;;;;;;2.30;1.53;;;;;;;;;;5051083;28;20214;-46
2022/09/21 13:48:12;;;;;;;3.17;1.50;;;;;;;;;;5036620;28;20203;-46
2022/09/21 13:50:41;;;;;;;3.83;1.50;;;;;;;;;;5050973;28;20653;-46
2022/09/21 13:53:11;;;;;;;4.43;1.30;;;;;;;;;;5050370;28;20315;-46
2022/09/21 13:55:38;;;;;;;2.17;1.37;;;;;;;;;;5051248;28;20408;-46
2022/09/21 13:58:07;;;;;;;3.43;1.50;;;;;;;;;;5051193;28;20275;-46
2022/09/21 14:00:35;;;;;;;2.50;1.30;;;;;;;;;;5055086;28;20207;-46
2022/09/21 14:03:03;;;;;;;3.30;1.47;;;;;;;;;;5054934;28;20629;-46
2022/09/21 14:05:32;;;;;;;2.17;1.20;;;;;;;;;;5055232;28;20192;-46
2022/09/21 14:08:00;;;;;;;2.63;1.07;;;;;;;;;;5055020;28;20216;-46
2022/09/21 14:10:27;;;;;;;3.00;1.20;;;;;;;;;;5055265;28;20204;-46
2022/09/21 14:12:53;;;;;;;3.63;1.43;;;;;;;;;;5054680;28;20200;-46
2022/09/21 14:15:35;;;;;;;3.70;1.43;;;;;;;;;;5054710;28;20223;-46
2022/09/21 14:18:10;;;;;;;2.60;1.20;;;;;;;;;;5053732;28;20671;-47
2022/09/21 14:20:36;;;;;;;4.47;2.70;;;;;;;;;;5054689;28;20200;-47
2022/09/21 14:23:26;;;;;;;4.77;2.03;;;;;;;;;;5054331;28;20283;-47
2022/09/21 14:25:53;;;;;;;3.60;1.30;;;;;;;;;;5054243;28;20272;-47
2022/09/21 14:28:25;;;;;;;2.77;1.43;;;;;;;;;;5054674;28;20211;-47
2022/09/21 14:30:54;;;;;;;3.40;1.60;;;;;;;;;;5054255;28;20301;-47
2022/09/21 14:33:26;;;;;;;2.97;1.30;;;;;;;;;;5054366;28;20255;-47
2022/09/21 14:35:54;;;;;;;2.33;1.17;;;;;;;;;;5054440;28;20231;-47
2022/09/21 14:38:22;;;;;;;3.37;1.63;;;;;;;;;;5054260;28;20208;-47
2022/09/21 14:40:49;;;;;;;2.60;1.90;;;;;;;;;;5053712;28;20270;-47
2022/09/21 14:43:21;;;;;;;3.83;1.60;;;;;;;;;;5054142;28;20302;-47
2022/09/21 14:45:54;;;;;;;4.87;1.30;;;;;;;;;;5054288;28;20216;-47
2022/09/21 14:48:29;;;;;;;4.47;1.40;;;;;;;;;;5054214;28;20203;-47
2022/09/21 14:50:59;;;;;;;3.27;1.27;;;;;;;;;;5054092;28;20199;-46
2022/09/21 14:53:33;;;;;;;2.43;1.27;;;;;;;;;;5054076;28;20266;-47
2022/09/21 14:56:08;;;;;;;2.80;1.53;;;;;;;;;;5053421;28;20634;-47